sensor_id;sensor_type;location;lat;lon;timestamp;P1;durP1;ratioP1;P2;durP2;ratioP2
17528;SDS011;8882;53.192;8.184;2022-11-14T05:31:24;28.27;;;13.60;;
17528;SDS011;8882;53.192;8.184;2022-11-14T05:33:50;27.10;;;14.10;;
17528;SDS011;8882;53.192;8.184;2022-11-14T05:36:16;30.83;;;15.07;;
17528;SDS011;8882;53.192;8.184;2022-11-14T05:38:42;28.77;;;13.50;;
17528;SDS011;8882;53.192;8.184;2022-11-14T05:41:11;29.07;;;13.97;;
17528;SDS011;8882;53.192;8.184;2022-11-14T05:43:38;28.40;;;14.27;;
17528;SDS011;8882;53.192;8.184;2022-11-14T05:46:05;27.67;;;14.27;;
17528;SDS011;8882;53.192;8.184;2022-11-14T05:48:33;32.30;;;14.50;;
17528;SDS011;8882;53.192;8.184;2022-11-14T05:50:59;29.37;;;13.27;;
17528;SDS011;8882;53.192;8.184;2022-11-14T05:53:26;27.53;;;12.73;;
17528;SDS011;8882;53.192;8.184;2022-11-14T05:55:52;30.73;;;14.17;;
17528;SDS011;8882;53.192;8.184;2022-11-14T05:58:19;28.73;;;13.77;;
17528;SDS011;8882;53.192;8.184;2022-11-14T06:00:45;31.73;;;14.27;;
17528;SDS011;8882;53.192;8.184;2022-11-14T06:03:11;34.23;;;15.43;;
17528;SDS011;8882;53.192;8.184;2022-11-14T06:05:38;32.73;;;14.73;;
17528;SDS011;8882;53.192;8.184;2022-11-14T06:08:04;30.97;;;15.17;;
17528;SDS011;8882;53.192;8.184;2022-11-14T06:10:30;30.57;;;14.60;;
17528;SDS011;8882;53.192;8.184;2022-11-14T06:12:55;31.70;;;14.53;;
17528;SDS011;8882;53.192;8.184;2022-11-14T06:15:21;33.83;;;14.03;;
17528;SDS011;8882;53.192;8.184;2022-11-14T06:17:46;31.30;;;14.10;;
17528;SDS011;8882;53.192;8.184;2022-11-14T06:20:12;31.83;;;13.97;;
17528;SDS011;8882;53.192;8.184;2022-11-14T06:22:39;33.70;;;13.93;;
17528;SDS011;8882;53.192;8.184;2022-11-14T06:25:04;25.80;;;13.97;;
17528;SDS011;8882;53.192;8.184;2022-11-14T06:27:30;30.30;;;13.87;;
17528;SDS011;8882;53.192;8.184;2022-11-14T06:29:56;30.97;;;14.87;;
17528;SDS011;8882;53.192;8.184;2022-11-14T06:32:21;29.63;;;13.67;;
17528;SDS011;8882;53.192;8.184;2022-11-14T06:34:47;29.13;;;14.73;;
17528;SDS011;8882;53.192;8.184;2022-11-14T06:37:12;31.67;;;14.50;;
17528;SDS011;8882;53.192;8.184;2022-11-14T06:39:38;35.37;;;14.83;;
17528;SDS011;8882;53.192;8.184;2022-11-14T06:42:03;30.60;;;14.23;;
17528;SDS011;8882;53.192;8.184;2022-11-14T06:44:29;31.97;;;14.53;;
17528;SDS011;8882;53.192;8.184;2022-11-14T06:46:54;28.77;;;13.97;;
17528;SDS011;8882;53.192;8.184;2022-11-14T06:49:20;30.27;;;14.40;;
17528;SDS011;8882;53.192;8.184;2022-11-14T06:51:46;28.03;;;14.07;;
17528;SDS011;8882;53.192;8.184;2022-11-14T06:54:12;33.97;;;15.30;;
17528;SDS011;8882;53.192;8.184;2022-11-14T06:56:38;37.10;;;15.70;;
17528;SDS011;8882;53.192;8.184;2022-11-14T06:59:03;35.10;;;15.03;;
17528;SDS011;8882;53.192;8.184;2022-11-14T07:01:29;32.97;;;14.07;;
17528;SDS011;8882;53.192;8.184;2022-11-14T07:03:54;36.40;;;14.10;;
17528;SDS011;8882;53.192;8.184;2022-11-14T07:06:23;29.33;;;14.33;;
17528;SDS011;8882;53.192;8.184;2022-11-14T07:08:51;34.37;;;15.53;;
17528;SDS011;8882;53.192;8.184;2022-11-14T07:11:18;32.57;;;15.27;;
17528;SDS011;8882;53.192;8.184;2022-11-14T07:13:54;30.27;;;14.10;;
17528;SDS011;8882;53.192;8.184;2022-11-14T07:16:24;30.97;;;14.30;;
17528;SDS011;8882;53.192;8.184;2022-11-14T07:18:59;30.00;;;14.00;;
17528;SDS011;8882;53.192;8.184;2022-11-14T07:21:27;33.00;;;15.23;;
17528;SDS011;8882;53.192;8.184;2022-11-14T07:23:54;30.00;;;14.13;;
17528;SDS011;8882;53.192;8.184;2022-11-14T07:26:20;30.17;;;15.00;;
17528;SDS011;8882;53.192;8.184;2022-11-14T07:28:46;31.90;;;14.53;;
17528;SDS011;8882;53.192;8.184;2022-11-14T07:31:13;34.13;;;15.10;;
17528;SDS011;8882;53.192;8.184;2022-11-14T07:33:41;36.40;;;14.80;;
17528;SDS011;8882;53.192;8.184;2022-11-14T07:36:07;33.23;;;14.87;;
17528;SDS011;8882;53.192;8.184;2022-11-14T07:38:34;36.20;;;15.77;;
17528;SDS011;8882;53.192;8.184;2022-11-14T07:41:02;32.90;;;14.90;;
17528;SDS011;8882;53.192;8.184;2022-11-14T07:43:35;32.87;;;15.03;;
17528;SDS011;8882;53.192;8.184;2022-11-14T07:46:10;31.53;;;15.27;;
17528;SDS011;8882;53.192;8.184;2022-11-14T07:48:38;34.60;;;15.67;;
17528;SDS011;8882;53.192;8.184;2022-11-14T07:51:05;30.20;;;14.10;;
17528;SDS011;8882;53.192;8.184;2022-11-14T07:53:33;31.50;;;15.13;;
17528;SDS011;8882;53.192;8.184;2022-11-14T07:56:04;29.10;;;15.27;;
17528;SDS011;8882;53.192;8.184;2022-11-14T07:58:31;35.53;;;14.83;;
17528;SDS011;8882;53.192;8.184;2022-11-14T08:01:01;32.67;;;14.37;;
17528;SDS011;8882;53.192;8.184;2022-11-14T08:03:27;35.10;;;14.50;;
17528;SDS011;8882;53.192;8.184;2022-11-14T08:06:03;28.97;;;14.63;;
17528;SDS011;8882;53.192;8.184;2022-11-14T08:08:30;34.57;;;14.47;;
17528;SDS011;8882;53.192;8.184;2022-11-14T08:10:57;29.40;;;15.50;;
17528;SDS011;8882;53.192;8.184;2022-11-14T08:13:23;34.60;;;14.77;;
17528;SDS011;8882;53.192;8.184;2022-11-14T08:15:49;36.33;;;14.90;;
17528;SDS011;8882;53.192;8.184;2022-11-14T08:18:15;33.33;;;15.27;;
17528;SDS011;8882;53.192;8.184;2022-11-14T08:20:41;31.27;;;14.30;;
17528;SDS011;8882;53.192;8.184;2022-11-14T08:23:06;38.80;;;15.43;;
17528;SDS011;8882;53.192;8.184;2022-11-14T08:25:32;33.07;;;14.27;;
17528;SDS011;8882;53.192;8.184;2022-11-14T08:27:57;38.60;;;15.37;;
17528;SDS011;8882;53.192;8.184;2022-11-14T08:30:23;39.10;;;14.43;;
17528;SDS011;8882;53.192;8.184;2022-11-14T08:32:49;34.07;;;14.77;;
17528;SDS011;8882;53.192;8.184;2022-11-14T08:35:15;33.30;;;16.10;;
17528;SDS011;8882;53.192;8.184;2022-11-14T08:37:40;31.80;;;14.10;;
17528;SDS011;8882;53.192;8.184;2022-11-14T08:40:06;30.33;;;14.80;;
17528;SDS011;8882;53.192;8.184;2022-11-14T08:42:32;32.70;;;14.40;;
17528;SDS011;8882;53.192;8.184;2022-11-14T08:44:57;33.57;;;15.70;;
17528;SDS011;8882;53.192;8.184;2022-11-14T08:47:22;33.83;;;15.70;;
17528;SDS011;8882;53.192;8.184;2022-11-14T08:49:48;36.57;;;15.47;;
17528;SDS011;8882;53.192;8.184;2022-11-14T08:52:13;34.93;;;15.23;;
17528;SDS011;8882;53.192;8.184;2022-11-14T08:54:39;35.40;;;15.53;;
17528;SDS011;8882;53.192;8.184;2022-11-14T08:57:04;37.37;;;15.87;;
17528;SDS011;8882;53.192;8.184;2022-11-14T08:59:30;36.93;;;15.97;;
17528;SDS011;8882;53.192;8.184;2022-11-14T09:01:56;36.37;;;15.50;;
17528;SDS011;8882;53.192;8.184;2022-11-14T09:04:21;35.40;;;15.07;;
17528;SDS011;8882;53.192;8.184;2022-11-14T09:06:47;38.80;;;15.37;;
17528;SDS011;8882;53.192;8.184;2022-11-14T09:09:12;32.93;;;14.03;;
17528;SDS011;8882;53.192;8.184;2022-11-14T09:11:38;35.83;;;14.63;;
17528;SDS011;8882;53.192;8.184;2022-11-14T09:14:04;35.30;;;14.53;;
17528;SDS011;8882;53.192;8.184;2022-11-14T09:16:30;31.87;;;14.20;;
17528;SDS011;8882;53.192;8.184;2022-11-14T09:18:55;36.17;;;14.27;;
17528;SDS011;8882;53.192;8.184;2022-11-14T09:21:21;34.47;;;14.87;;
17528;SDS011;8882;53.192;8.184;2022-11-14T09:23:46;41.70;;;16.03;;
17528;SDS011;8882;53.192;8.184;2022-11-14T09:26:12;32.40;;;13.97;;
17528;SDS011;8882;53.192;8.184;2022-11-14T09:28:38;36.73;;;15.10;;
17528;SDS011;8882;53.192;8.184;2022-11-14T09:31:05;31.97;;;14.03;;
17528;SDS011;8882;53.192;8.184;2022-11-14T09:33:32;32.07;;;13.97;;
17528;SDS011;8882;53.192;8.184;2022-11-14T09:35:59;31.47;;;14.43;;
17528;SDS011;8882;53.192;8.184;2022-11-14T09:38:26;32.03;;;14.87;;
17528;SDS011;8882;53.192;8.184;2022-11-14T09:46:31;32.77;;;14.83;;
17528;SDS011;8882;53.192;8.184;2022-11-14T09:49:01;34.23;;;14.90;;
17528;SDS011;8882;53.192;8.184;2022-11-14T09:51:28;35.47;;;14.77;;
17528;SDS011;8882;53.192;8.184;2022-11-14T09:54:09;31.87;;;14.83;;
17528;SDS011;8882;53.192;8.184;2022-11-14T09:56:48;30.27;;;13.80;;
17528;SDS011;8882;53.192;8.184;2022-11-14T09:59:14;41.27;;;15.73;;
17528;SDS011;8882;53.192;8.184;2022-11-14T10:01:53;31.80;;;14.90;;
17528;SDS011;8882;53.192;8.184;2022-11-14T10:04:31;33.87;;;14.30;;
17528;SDS011;8882;53.192;8.184;2022-11-14T10:17:59;33.37;;;15.70;;
17528;SDS011;8882;53.192;8.184;2022-11-14T10:20:33;35.73;;;15.53;;
17528;SDS011;8882;53.192;8.184;2022-11-14T10:23:17;32.47;;;15.07;;
17528;SDS011;8882;53.192;8.184;2022-11-14T10:25:46;31.63;;;15.07;;
17528;SDS011;8882;53.192;8.184;2022-11-14T10:28:39;32.97;;;14.47;;
17528;SDS011;8882;53.192;8.184;2022-11-14T10:31:39;31.83;;;14.73;;
17528;SDS011;8882;53.192;8.184;2022-11-14T10:36:48;32.90;;;15.90;;
17528;SDS011;8882;53.192;8.184;2022-11-14T10:39:40;39.57;;;15.60;;
17528;SDS011;8882;53.192;8.184;2022-11-14T10:42:33;35.87;;;16.13;;
17528;SDS011;8882;53.192;8.184;2022-11-14T10:45:16;33.53;;;15.70;;
17528;SDS011;8882;53.192;8.184;2022-11-14T10:48:07;36.57;;;14.07;;
17528;SDS011;8882;53.192;8.184;2022-11-14T10:50:43;36.87;;;14.23;;
17528;SDS011;8882;53.192;8.184;2022-11-14T10:53:31;39.53;;;16.17;;
17528;SDS011;8882;53.192;8.184;2022-11-14T10:56:12;35.20;;;16.47;;
17528;SDS011;8882;53.192;8.184;2022-11-14T10:58:39;38.97;;;15.57;;
17528;SDS011;8882;53.192;8.184;2022-11-14T11:09:30;28.30;;;13.43;;
17528;SDS011;8882;53.192;8.184;2022-11-14T11:12:37;32.50;;;14.27;;
17528;SDS011;8882;53.192;8.184;2022-11-14T11:15:12;32.83;;;13.83;;
17528;SDS011;8882;53.192;8.184;2022-11-14T11:17:53;33.67;;;14.30;;
17528;SDS011;8882;53.192;8.184;2022-11-14T11:20:23;30.73;;;14.27;;
17528;SDS011;8882;53.192;8.184;2022-11-14T11:23:06;30.87;;;14.20;;
17528;SDS011;8882;53.192;8.184;2022-11-14T11:25:43;25.23;;;12.67;;
17528;SDS011;8882;53.192;8.184;2022-11-14T11:28:16;31.10;;;13.83;;
17528;SDS011;8882;53.192;8.184;2022-11-14T11:30:53;28.53;;;14.00;;
17528;SDS011;8882;53.192;8.184;2022-11-14T11:35:48;29.77;;;13.17;;
17528;SDS011;8882;53.192;8.184;2022-11-14T11:38:16;31.10;;;12.87;;
17528;SDS011;8882;53.192;8.184;2022-11-14T11:40:43;31.80;;;13.97;;
17528;SDS011;8882;53.192;8.184;2022-11-14T11:43:24;28.27;;;12.90;;
17528;SDS011;8882;53.192;8.184;2022-11-14T11:45:55;29.27;;;13.00;;
17528;SDS011;8882;53.192;8.184;2022-11-14T11:48:27;27.23;;;12.40;;
17528;SDS011;8882;53.192;8.184;2022-11-14T11:51:02;28.47;;;13.50;;
17528;SDS011;8882;53.192;8.184;2022-11-14T11:53:36;25.90;;;12.77;;
17528;SDS011;8882;53.192;8.184;2022-11-14T11:56:08;25.57;;;13.20;;
17528;SDS011;8882;53.192;8.184;2022-11-14T11:58:45;25.93;;;12.67;;
17528;SDS011;8882;53.192;8.184;2022-11-14T12:01:13;27.03;;;13.50;;
17528;SDS011;8882;53.192;8.184;2022-11-14T12:03:41;26.93;;;13.97;;
17528;SDS011;8882;53.192;8.184;2022-11-14T12:06:21;25.03;;;12.23;;
17528;SDS011;8882;53.192;8.184;2022-11-14T12:11:44;24.97;;;12.77;;
17528;SDS011;8882;53.192;8.184;2022-11-14T12:30:28;24.23;;;12.07;;
17528;SDS011;8882;53.192;8.184;2022-11-14T12:33:08;24.60;;;12.10;;
17528;SDS011;8882;53.192;8.184;2022-11-14T12:35:47;25.27;;;11.37;;
17528;SDS011;8882;53.192;8.184;2022-11-14T12:38:15;23.00;;;12.40;;
17528;SDS011;8882;53.192;8.184;2022-11-14T12:40:49;26.30;;;12.30;;
17528;SDS011;8882;53.192;8.184;2022-11-14T12:43:32;24.80;;;12.93;;
17528;SDS011;8882;53.192;8.184;2022-11-14T12:46:03;23.73;;;12.37;;
17528;SDS011;8882;53.192;8.184;2022-11-14T12:48:41;24.47;;;11.37;;
17528;SDS011;8882;53.192;8.184;2022-11-14T12:53:49;25.10;;;11.53;;
17528;SDS011;8882;53.192;8.184;2022-11-14T12:59:12;25.67;;;12.43;;
17528;SDS011;8882;53.192;8.184;2022-11-14T13:01:46;22.67;;;12.07;;
17528;SDS011;8882;53.192;8.184;2022-11-14T13:07:25;25.70;;;12.87;;
17528;SDS011;8882;53.192;8.184;2022-11-14T13:13:07;25.70;;;12.67;;
17528;SDS011;8882;53.192;8.184;2022-11-14T13:16:02;28.00;;;12.10;;
17528;SDS011;8882;53.192;8.184;2022-11-14T13:18:54;23.33;;;12.33;;
17528;SDS011;8882;53.192;8.184;2022-11-14T13:27:27;28.07;;;12.03;;
17528;SDS011;8882;53.192;8.184;2022-11-14T13:29:54;27.73;;;12.83;;
17528;SDS011;8882;53.192;8.184;2022-11-14T13:32:51;23.97;;;12.27;;
17528;SDS011;8882;53.192;8.184;2022-11-14T13:35:23;32.67;;;13.27;;
17528;SDS011;8882;53.192;8.184;2022-11-14T13:41:20;26.27;;;13.37;;
17528;SDS011;8882;53.192;8.184;2022-11-14T13:46:32;27.83;;;13.43;;
17528;SDS011;8882;53.192;8.184;2022-11-14T13:52:33;23.93;;;12.03;;
17528;SDS011;8882;53.192;8.184;2022-11-14T13:55:04;30.53;;;12.17;;
17528;SDS011;8882;53.192;8.184;2022-11-14T14:00:45;29.63;;;13.60;;
17528;SDS011;8882;53.192;8.184;2022-11-14T14:03:34;28.17;;;12.73;;
17528;SDS011;8882;53.192;8.184;2022-11-14T14:06:17;27.93;;;13.10;;
17528;SDS011;8882;53.192;8.184;2022-11-14T14:09:20;26.50;;;12.97;;
17528;SDS011;8882;53.192;8.184;2022-11-14T14:12:27;28.00;;;13.67;;
17528;SDS011;8882;53.192;8.184;2022-11-14T14:14:48;26.77;;;12.60;;
17528;SDS011;8882;53.192;8.184;2022-11-14T14:17:39;25.73;;;12.57;;
17528;SDS011;8882;53.192;8.184;2022-11-14T14:25:31;26.83;;;12.83;;
17528;SDS011;8882;53.192;8.184;2022-11-14T14:29:10;28.93;;;13.23;;
17528;SDS011;8882;53.192;8.184;2022-11-14T14:31:13;27.70;;;13.33;;
17528;SDS011;8882;53.192;8.184;2022-11-14T14:33:44;26.93;;;13.97;;
17528;SDS011;8882;53.192;8.184;2022-11-14T14:36:17;29.50;;;15.07;;
17528;SDS011;8882;53.192;8.184;2022-11-14T14:38:49;33.67;;;15.47;;
17528;SDS011;8882;53.192;8.184;2022-11-14T14:41:30;33.30;;;17.27;;
17528;SDS011;8882;53.192;8.184;2022-11-14T14:43:56;28.60;;;14.43;;
17528;SDS011;8882;53.192;8.184;2022-11-14T14:46:27;24.87;;;13.43;;
17528;SDS011;8882;53.192;8.184;2022-11-14T14:48:55;38.37;;;16.67;;
17528;SDS011;8882;53.192;8.184;2022-11-14T14:51:35;32.03;;;15.37;;
17528;SDS011;8882;53.192;8.184;2022-11-14T14:54:02;37.60;;;17.57;;
17528;SDS011;8882;53.192;8.184;2022-11-14T14:56:27;34.80;;;15.57;;
17528;SDS011;8882;53.192;8.184;2022-11-14T14:58:53;32.63;;;14.90;;
17528;SDS011;8882;53.192;8.184;2022-11-14T15:01:20;30.33;;;14.90;;
17528;SDS011;8882;53.192;8.184;2022-11-14T15:03:55;32.93;;;14.60;;
17528;SDS011;8882;53.192;8.184;2022-11-14T15:08:58;28.23;;;14.10;;
17528;SDS011;8882;53.192;8.184;2022-11-14T15:11:32;27.57;;;14.77;;
17528;SDS011;8882;53.192;8.184;2022-11-14T15:13:59;27.80;;;12.83;;
17528;SDS011;8882;53.192;8.184;2022-11-14T15:16:26;26.07;;;13.43;;
17528;SDS011;8882;53.192;8.184;2022-11-14T15:18:53;28.00;;;12.53;;
17528;SDS011;8882;53.192;8.184;2022-11-14T15:23:58;28.90;;;13.83;;
17528;SDS011;8882;53.192;8.184;2022-11-14T15:26:44;27.63;;;13.67;;
17528;SDS011;8882;53.192;8.184;2022-11-14T15:29:17;27.73;;;13.57;;
17528;SDS011;8882;53.192;8.184;2022-11-14T15:31:46;29.37;;;12.87;;
17528;SDS011;8882;53.192;8.184;2022-11-14T15:35:05;30.37;;;13.37;;
17528;SDS011;8882;53.192;8.184;2022-11-14T15:39:34;27.13;;;13.30;;
17528;SDS011;8882;53.192;8.184;2022-11-14T15:42:25;28.83;;;13.00;;
17528;SDS011;8882;53.192;8.184;2022-11-14T15:44:52;30.20;;;14.70;;
17528;SDS011;8882;53.192;8.184;2022-11-14T15:47:25;31.53;;;13.93;;
17528;SDS011;8882;53.192;8.184;2022-11-14T15:49:55;28.20;;;14.17;;
17528;SDS011;8882;53.192;8.184;2022-11-14T15:52:33;28.87;;;14.27;;
17528;SDS011;8882;53.192;8.184;2022-11-14T15:55:01;30.20;;;14.30;;
17528;SDS011;8882;53.192;8.184;2022-11-14T15:57:27;26.70;;;13.23;;
17528;SDS011;8882;53.192;8.184;2022-11-14T15:59:55;32.00;;;14.40;;
17528;SDS011;8882;53.192;8.184;2022-11-14T16:02:25;32.67;;;13.90;;
17528;SDS011;8882;53.192;8.184;2022-11-14T16:04:57;30.13;;;14.77;;
17528;SDS011;8882;53.192;8.184;2022-11-14T16:07:23;27.83;;;14.43;;
17528;SDS011;8882;53.192;8.184;2022-11-14T16:09:49;32.87;;;15.17;;
17528;SDS011;8882;53.192;8.184;2022-11-14T16:12:15;29.07;;;13.87;;
17528;SDS011;8882;53.192;8.184;2022-11-14T16:14:41;29.80;;;14.20;;
17528;SDS011;8882;53.192;8.184;2022-11-14T16:17:11;37.13;;;16.40;;
17528;SDS011;8882;53.192;8.184;2022-11-14T16:19:38;28.10;;;14.57;;
17528;SDS011;8882;53.192;8.184;2022-11-14T16:22:04;27.23;;;14.07;;
17528;SDS011;8882;53.192;8.184;2022-11-14T16:24:30;25.43;;;12.93;;
17528;SDS011;8882;53.192;8.184;2022-11-14T16:26:55;30.23;;;13.73;;
17528;SDS011;8882;53.192;8.184;2022-11-14T16:29:22;29.87;;;15.57;;
17528;SDS011;8882;53.192;8.184;2022-11-14T16:31:48;27.33;;;13.17;;
17528;SDS011;8882;53.192;8.184;2022-11-14T16:34:19;32.90;;;14.43;;
17528;SDS011;8882;53.192;8.184;2022-11-14T16:36:47;28.80;;;14.07;;
17528;SDS011;8882;53.192;8.184;2022-11-14T16:39:13;28.07;;;14.63;;
17528;SDS011;8882;53.192;8.184;2022-11-14T16:41:39;29.63;;;14.43;;
17528;SDS011;8882;53.192;8.184;2022-11-14T16:44:07;32.37;;;14.70;;
17528;SDS011;8882;53.192;8.184;2022-11-14T16:46:37;29.73;;;15.60;;
17528;SDS011;8882;53.192;8.184;2022-11-14T16:49:03;33.20;;;18.93;;
17528;SDS011;8882;53.192;8.184;2022-11-14T16:51:28;45.03;;;23.10;;
17528;SDS011;8882;53.192;8.184;2022-11-14T16:53:54;37.40;;;19.30;;
17528;SDS011;8882;53.192;8.184;2022-11-14T16:56:20;29.73;;;15.57;;
17528;SDS011;8882;53.192;8.184;2022-11-14T16:58:45;28.13;;;14.60;;
17528;SDS011;8882;53.192;8.184;2022-11-14T17:01:13;25.23;;;13.50;;
17528;SDS011;8882;53.192;8.184;2022-11-14T17:03:42;29.40;;;14.67;;
17528;SDS011;8882;53.192;8.184;2022-11-14T17:06:07;28.67;;;13.93;;
17528;SDS011;8882;53.192;8.184;2022-11-14T17:08:34;32.23;;;14.43;;
17528;SDS011;8882;53.192;8.184;2022-11-14T17:11:00;27.23;;;13.20;;
17528;SDS011;8882;53.192;8.184;2022-11-14T17:13:31;28.73;;;14.53;;
17528;SDS011;8882;53.192;8.184;2022-11-14T17:15:59;30.97;;;14.87;;
17528;SDS011;8882;53.192;8.184;2022-11-14T17:18:26;28.90;;;14.33;;
17528;SDS011;8882;53.192;8.184;2022-11-14T17:20:51;30.73;;;14.57;;
17528;SDS011;8882;53.192;8.184;2022-11-14T17:23:17;24.07;;;13.33;;
17528;SDS011;8882;53.192;8.184;2022-11-14T17:25:43;27.73;;;14.30;;
17528;SDS011;8882;53.192;8.184;2022-11-14T17:28:08;29.97;;;14.10;;
17528;SDS011;8882;53.192;8.184;2022-11-14T17:30:34;27.53;;;14.13;;
17528;SDS011;8882;53.192;8.184;2022-11-14T17:33:04;27.60;;;14.77;;
17528;SDS011;8882;53.192;8.184;2022-11-14T17:35:29;27.53;;;13.93;;
17528;SDS011;8882;53.192;8.184;2022-11-14T17:37:55;26.40;;;14.33;;
17528;SDS011;8882;53.192;8.184;2022-11-14T17:40:20;26.37;;;14.63;;
17528;SDS011;8882;53.192;8.184;2022-11-14T17:42:46;29.00;;;15.17;;
17528;SDS011;8882;53.192;8.184;2022-11-14T17:45:11;26.07;;;13.80;;
17528;SDS011;8882;53.192;8.184;2022-11-14T17:47:37;29.03;;;13.63;;
17528;SDS011;8882;53.192;8.184;2022-11-14T17:50:03;29.80;;;14.33;;
17528;SDS011;8882;53.192;8.184;2022-11-14T17:52:28;29.23;;;14.20;;
17528;SDS011;8882;53.192;8.184;2022-11-14T17:54:54;29.13;;;15.13;;
17528;SDS011;8882;53.192;8.184;2022-11-14T17:57:19;25.83;;;15.13;;
17528;SDS011;8882;53.192;8.184;2022-11-14T17:59:45;31.40;;;14.07;;
17528;SDS011;8882;53.192;8.184;2022-11-14T18:02:12;30.03;;;15.00;;
17528;SDS011;8882;53.192;8.184;2022-11-14T18:04:38;31.73;;;15.30;;
17528;SDS011;8882;53.192;8.184;2022-11-14T18:07:03;32.60;;;14.77;;
17528;SDS011;8882;53.192;8.184;2022-11-14T18:09:29;25.50;;;13.63;;
17528;SDS011;8882;53.192;8.184;2022-11-14T18:11:54;29.57;;;14.50;;
17528;SDS011;8882;53.192;8.184;2022-11-14T18:14:21;26.90;;;14.47;;
17528;SDS011;8882;53.192;8.184;2022-11-14T18:16:46;26.97;;;13.63;;
17528;SDS011;8882;53.192;8.184;2022-11-14T18:19:12;27.37;;;14.63;;
17528;SDS011;8882;53.192;8.184;2022-11-14T18:21:38;30.13;;;13.67;;
17528;SDS011;8882;53.192;8.184;2022-11-14T18:24:04;28.90;;;14.20;;
17528;SDS011;8882;53.192;8.184;2022-11-14T18:26:29;30.27;;;14.23;;
17528;SDS011;8882;53.192;8.184;2022-11-14T18:29:01;30.80;;;15.17;;
17528;SDS011;8882;53.192;8.184;2022-11-14T18:31:27;28.43;;;14.27;;
17528;SDS011;8882;53.192;8.184;2022-11-14T18:33:53;31.93;;;15.07;;
17528;SDS011;8882;53.192;8.184;2022-11-14T18:36:19;34.33;;;14.93;;
17528;SDS011;8882;53.192;8.184;2022-11-14T18:38:45;26.57;;;14.33;;
17528;SDS011;8882;53.192;8.184;2022-11-14T18:41:14;30.07;;;14.83;;
17528;SDS011;8882;53.192;8.184;2022-11-14T18:43:42;31.87;;;15.00;;
17528;SDS011;8882;53.192;8.184;2022-11-14T18:46:15;27.07;;;14.07;;
17528;SDS011;8882;53.192;8.184;2022-11-14T18:48:43;34.58;;;18.38;;
17528;SDS011;8882;53.192;8.184;2022-11-14T18:51:11;33.77;;;17.83;;
17528;SDS011;8882;53.192;8.184;2022-11-14T18:53:42;35.17;;;16.90;;
17528;SDS011;8882;53.192;8.184;2022-11-14T18:56:11;26.43;;;13.90;;
17528;SDS011;8882;53.192;8.184;2022-11-14T18:58:39;32.53;;;15.43;;
17528;SDS011;8882;53.192;8.184;2022-11-14T19:01:16;28.10;;;13.73;;
17528;SDS011;8882;53.192;8.184;2022-11-14T19:03:47;27.03;;;14.23;;
17528;SDS011;8882;53.192;8.184;2022-11-14T19:06:14;27.23;;;14.07;;
17528;SDS011;8882;53.192;8.184;2022-11-14T19:08:40;32.87;;;13.97;;
17528;SDS011;8882;53.192;8.184;2022-11-14T19:11:07;30.97;;;14.63;;
17528;SDS011;8882;53.192;8.184;2022-11-14T19:13:55;24.57;;;13.77;;
17528;SDS011;8882;53.192;8.184;2022-11-14T19:16:20;25.13;;;13.50;;
17528;SDS011;8882;53.192;8.184;2022-11-14T19:18:46;30.87;;;13.60;;
17528;SDS011;8882;53.192;8.184;2022-11-14T19:21:12;31.87;;;14.57;;
17528;SDS011;8882;53.192;8.184;2022-11-14T19:23:37;32.13;;;15.17;;
17528;SDS011;8882;53.192;8.184;2022-11-14T19:26:03;27.87;;;15.07;;
17528;SDS011;8882;53.192;8.184;2022-11-14T19:28:28;32.70;;;14.50;;
17528;SDS011;8882;53.192;8.184;2022-11-14T19:31:03;26.87;;;14.27;;
17528;SDS011;8882;53.192;8.184;2022-11-14T19:33:30;34.10;;;15.67;;
17528;SDS011;8882;53.192;8.184;2022-11-14T19:35:56;29.87;;;15.63;;
17528;SDS011;8882;53.192;8.184;2022-11-14T19:38:21;34.27;;;16.40;;
17528;SDS011;8882;53.192;8.184;2022-11-14T19:40:47;29.57;;;14.80;;
17528;SDS011;8882;53.192;8.184;2022-11-14T19:43:18;31.80;;;14.77;;
17528;SDS011;8882;53.192;8.184;2022-11-14T19:45:44;29.63;;;15.73;;
17528;SDS011;8882;53.192;8.184;2022-11-14T19:48:10;27.20;;;14.70;;
17528;SDS011;8882;53.192;8.184;2022-11-14T19:50:36;33.70;;;16.23;;
17528;SDS011;8882;53.192;8.184;2022-11-14T19:53:02;33.30;;;15.20;;
17528;SDS011;8882;53.192;8.184;2022-11-14T19:55:30;30.07;;;15.67;;
17528;SDS011;8882;53.192;8.184;2022-11-14T19:57:59;30.47;;;15.23;;
17528;SDS011;8882;53.192;8.184;2022-11-14T20:00:25;30.40;;;16.43;;
17528;SDS011;8882;53.192;8.184;2022-11-14T20:02:53;35.27;;;16.87;;
17528;SDS011;8882;53.192;8.184;2022-11-14T20:05:18;28.53;;;15.07;;
17528;SDS011;8882;53.192;8.184;2022-11-14T20:07:44;29.57;;;15.43;;
17528;SDS011;8882;53.192;8.184;2022-11-14T20:10:09;28.83;;;14.17;;
17528;SDS011;8882;53.192;8.184;2022-11-14T20:12:35;27.53;;;14.77;;
17528;SDS011;8882;53.192;8.184;2022-11-14T20:15:00;32.83;;;14.73;;
17528;SDS011;8882;53.192;8.184;2022-11-14T20:17:26;29.60;;;14.77;;
17528;SDS011;8882;53.192;8.184;2022-11-14T20:19:51;30.07;;;15.57;;
17528;SDS011;8882;53.192;8.184;2022-11-14T20:22:17;28.57;;;15.60;;
17528;SDS011;8882;53.192;8.184;2022-11-14T20:24:43;31.40;;;15.07;;
17528;SDS011;8882;53.192;8.184;2022-11-14T20:27:08;27.40;;;15.10;;
17528;SDS011;8882;53.192;8.184;2022-11-14T20:29:34;31.27;;;14.93;;
17528;SDS011;8882;53.192;8.184;2022-11-14T20:31:59;33.63;;;15.40;;
17528;SDS011;8882;53.192;8.184;2022-11-14T20:34:27;30.13;;;15.27;;
17528;SDS011;8882;53.192;8.184;2022-11-14T20:36:53;26.50;;;15.27;;
17528;SDS011;8882;53.192;8.184;2022-11-14T20:39:19;26.50;;;14.03;;
17528;SDS011;8882;53.192;8.184;2022-11-14T20:41:45;27.50;;;14.30;;
17528;SDS011;8882;53.192;8.184;2022-11-14T20:44:10;27.40;;;14.07;;
17528;SDS011;8882;53.192;8.184;2022-11-14T20:46:36;27.97;;;14.30;;
17528;SDS011;8882;53.192;8.184;2022-11-14T20:49:01;30.63;;;15.50;;
17528;SDS011;8882;53.192;8.184;2022-11-14T20:51:28;26.63;;;14.70;;
17528;SDS011;8882;53.192;8.184;2022-11-14T20:53:53;25.33;;;13.97;;
17528;SDS011;8882;53.192;8.184;2022-11-14T20:56:20;27.63;;;14.13;;
17528;SDS011;8882;53.192;8.184;2022-11-14T20:58:47;29.03;;;14.50;;
17528;SDS011;8882;53.192;8.184;2022-11-14T21:01:15;26.33;;;14.00;;
17528;SDS011;8882;53.192;8.184;2022-11-14T21:03:41;30.03;;;14.40;;
17528;SDS011;8882;53.192;8.184;2022-11-14T21:06:06;28.33;;;14.07;;
17528;SDS011;8882;53.192;8.184;2022-11-14T21:08:35;25.60;;;13.57;;
17528;SDS011;8882;53.192;8.184;2022-11-14T21:11:02;33.27;;;14.70;;
17528;SDS011;8882;53.192;8.184;2022-11-14T21:13:29;27.27;;;13.83;;
17528;SDS011;8882;53.192;8.184;2022-11-14T21:16:14;25.90;;;13.70;;
17528;SDS011;8882;53.192;8.184;2022-11-14T21:18:41;25.37;;;13.57;;
17528;SDS011;8882;53.192;8.184;2022-11-14T21:21:09;28.20;;;13.87;;
17528;SDS011;8882;53.192;8.184;2022-11-14T21:23:36;27.17;;;13.87;;
17528;SDS011;8882;53.192;8.184;2022-11-14T21:26:06;26.33;;;13.13;;
17528;SDS011;8882;53.192;8.184;2022-11-14T21:28:40;29.20;;;13.53;;
17528;SDS011;8882;53.192;8.184;2022-11-14T21:31:18;24.90;;;13.50;;
17528;SDS011;8882;53.192;8.184;2022-11-14T21:33:49;27.07;;;12.43;;
17528;SDS011;8882;53.192;8.184;2022-11-14T21:36:16;24.20;;;13.37;;
17528;SDS011;8882;53.192;8.184;2022-11-14T21:38:43;24.27;;;12.70;;
17528;SDS011;8882;53.192;8.184;2022-11-14T21:41:10;26.83;;;12.77;;
17528;SDS011;8882;53.192;8.184;2022-11-14T21:43:40;22.37;;;12.50;;
17528;SDS011;8882;53.192;8.184;2022-11-14T21:46:06;25.70;;;13.43;;
17528;SDS011;8882;53.192;8.184;2022-11-14T21:48:33;26.43;;;12.60;;
17528;SDS011;8882;53.192;8.184;2022-11-14T21:51:13;23.83;;;11.97;;